METAR Formatted Surface Weather Observation
Issued by NWS

Home | Current Version | Previous Version | Text Only | Print | Product List | Glossary On
Versions: 1 2 3 4 5 6 7 8 9 10
000
SAUS46 KLOX 240754
MTRNZY
METAR KNZY 240752Z 00000KT 10SM FEW020 18/11 A3000 RMK AO2 SLP157 FU
FEW020 T01830111 403560150



USA.gov is the U.S. government's official web portal to all federal, state and local government web resources and services.